sensor_id;sensor_type;location;lat;lon;timestamp;P1;durP1;ratioP1;P2;durP2;ratioP2
14681;SDS011;7429;52.498;13.480;2022-09-09T00:01:58;14.93;;;13.73;;
14681;SDS011;7429;52.498;13.480;2022-09-09T00:05:09;13.88;;;11.50;;
14681;SDS011;7429;52.498;13.480;2022-09-09T00:08:32;13.80;;;11.98;;
14681;SDS011;7429;52.498;13.480;2022-09-09T00:11:47;14.27;;;12.90;;
14681;SDS011;7429;52.498;13.480;2022-09-09T00:14:55;15.35;;;13.73;;
14681;SDS011;7429;52.498;13.480;2022-09-09T00:18:08;14.90;;;13.60;;
14681;SDS011;7429;52.498;13.480;2022-09-09T00:21:21;13.20;;;12.00;;
14681;SDS011;7429;52.498;13.480;2022-09-09T00:24:32;15.47;;;13.87;;
14681;SDS011;7429;52.498;13.480;2022-09-09T00:27:45;14.05;;;12.75;;
14681;SDS011;7429;52.498;13.480;2022-09-09T00:30:51;14.75;;;11.90;;
14681;SDS011;7429;52.498;13.480;2022-09-09T00:33:56;15.40;;;14.00;;
14681;SDS011;7429;52.498;13.480;2022-09-09T00:37:07;16.33;;;14.60;;
14681;SDS011;7429;52.498;13.480;2022-09-09T00:40:17;15.63;;;14.13;;
14681;SDS011;7429;52.498;13.480;2022-09-09T00:43:28;16.60;;;15.00;;
14681;SDS011;7429;52.498;13.480;2022-09-09T00:46:47;16.20;;;14.70;;
14681;SDS011;7429;52.498;13.480;2022-09-09T00:50:08;13.03;;;11.70;;
14681;SDS011;7429;52.498;13.480;2022-09-09T00:53:31;16.13;;;14.70;;
14681;SDS011;7429;52.498;13.480;2022-09-09T00:56:46;15.25;;;13.85;;
14681;SDS011;7429;52.498;13.480;2022-09-09T01:00:21;14.87;;;13.50;;
14681;SDS011;7429;52.498;13.480;2022-09-09T01:03:29;13.10;;;12.00;;
14681;SDS011;7429;52.498;13.480;2022-09-09T01:06:38;13.07;;;11.77;;
14681;SDS011;7429;52.498;13.480;2022-09-09T01:09:44;11.87;;;10.67;;
14681;SDS011;7429;52.498;13.480;2022-09-09T01:13:01;11.50;;;10.60;;
14681;SDS011;7429;52.498;13.480;2022-09-09T01:16:15;20.87;;;11.03;;
14681;SDS011;7429;52.498;13.480;2022-09-09T01:19:23;14.27;;;13.20;;
14681;SDS011;7429;52.498;13.480;2022-09-09T01:22:43;13.10;;;12.13;;
14681;SDS011;7429;52.498;13.480;2022-09-09T01:26:12;15.00;;;13.80;;
14681;SDS011;7429;52.498;13.480;2022-09-09T01:29:24;14.77;;;13.67;;
14681;SDS011;7429;52.498;13.480;2022-09-09T01:32:38;16.97;;;13.60;;
14681;SDS011;7429;52.498;13.480;2022-09-09T01:35:47;14.10;;;12.90;;
14681;SDS011;7429;52.498;13.480;2022-09-09T01:38:57;13.30;;;12.10;;
14681;SDS011;7429;52.498;13.480;2022-09-09T01:42:03;14.40;;;13.33;;
14681;SDS011;7429;52.498;13.480;2022-09-09T01:45:09;14.20;;;12.90;;
14681;SDS011;7429;52.498;13.480;2022-09-09T01:48:12;12.57;;;11.37;;
14681;SDS011;7429;52.498;13.480;2022-09-09T01:51:19;14.07;;;12.87;;
14681;SDS011;7429;52.498;13.480;2022-09-09T01:54:24;16.33;;;14.93;;
14681;SDS011;7429;52.498;13.480;2022-09-09T01:57:38;18.37;;;16.73;;
14681;SDS011;7429;52.498;13.480;2022-09-09T02:00:58;16.67;;;15.10;;
14681;SDS011;7429;52.498;13.480;2022-09-09T02:04:12;17.30;;;15.80;;
14681;SDS011;7429;52.498;13.480;2022-09-09T02:07:40;13.20;;;12.13;;
14681;SDS011;7429;52.498;13.480;2022-09-09T02:11:01;13.83;;;12.63;;
14681;SDS011;7429;52.498;13.480;2022-09-09T02:14:16;12.33;;;11.23;;
14681;SDS011;7429;52.498;13.480;2022-09-09T02:17:26;12.50;;;11.30;;
14681;SDS011;7429;52.498;13.480;2022-09-09T02:20:39;13.47;;;12.27;;
14681;SDS011;7429;52.498;13.480;2022-09-09T02:23:44;11.90;;;10.80;;
14681;SDS011;7429;52.498;13.480;2022-09-09T02:26:51;12.43;;;11.17;;
14681;SDS011;7429;52.498;13.480;2022-09-09T02:29:58;12.03;;;10.93;;
14681;SDS011;7429;52.498;13.480;2022-09-09T02:33:11;12.20;;;11.10;;
14681;SDS011;7429;52.498;13.480;2022-09-09T02:36:20;12.32;;;11.07;;
14681;SDS011;7429;52.498;13.480;2022-09-09T02:39:26;14.30;;;12.00;;
14681;SDS011;7429;52.498;13.480;2022-09-09T02:42:30;11.27;;;10.03;;
14681;SDS011;7429;52.498;13.480;2022-09-09T02:45:39;13.20;;;12.00;;
14681;SDS011;7429;52.498;13.480;2022-09-09T02:48:51;11.53;;;10.33;;
14681;SDS011;7429;52.498;13.480;2022-09-09T02:52:07;11.73;;;10.63;;
14681;SDS011;7429;52.498;13.480;2022-09-09T02:55:18;10.37;;;9.20;;
14681;SDS011;7429;52.498;13.480;2022-09-09T02:58:30;12.57;;;10.97;;
14681;SDS011;7429;52.498;13.480;2022-09-09T03:01:39;14.47;;;12.47;;
14681;SDS011;7429;52.498;13.480;2022-09-09T03:04:44;14.73;;;13.50;;
14681;SDS011;7429;52.498;13.480;2022-09-09T03:07:52;10.77;;;9.77;;
14681;SDS011;7429;52.498;13.480;2022-09-09T03:10:57;11.27;;;10.17;;
14681;SDS011;7429;52.498;13.480;2022-09-09T03:14:05;14.17;;;12.77;;
14681;SDS011;7429;52.498;13.480;2022-09-09T03:17:12;13.93;;;12.73;;
14681;SDS011;7429;52.498;13.480;2022-09-09T03:20:22;11.60;;;10.70;;
14681;SDS011;7429;52.498;13.480;2022-09-09T03:23:27;11.27;;;10.27;;
14681;SDS011;7429;52.498;13.480;2022-09-09T03:26:32;10.37;;;9.23;;
14681;SDS011;7429;52.498;13.480;2022-09-09T03:29:37;12.40;;;10.47;;
14681;SDS011;7429;52.498;13.480;2022-09-09T03:32:45;11.80;;;10.67;;
14681;SDS011;7429;52.498;13.480;2022-09-09T03:35:49;12.73;;;11.63;;
14681;SDS011;7429;52.498;13.480;2022-09-09T03:38:54;13.70;;;12.50;;
14681;SDS011;7429;52.498;13.480;2022-09-09T03:42:00;11.97;;;10.97;;
14681;SDS011;7429;52.498;13.480;2022-09-09T03:45:06;12.07;;;10.90;;
14681;SDS011;7429;52.498;13.480;2022-09-09T03:48:16;11.93;;;10.80;;
14681;SDS011;7429;52.498;13.480;2022-09-09T03:51:20;12.70;;;11.50;;
14681;SDS011;7429;52.498;13.480;2022-09-09T03:54:24;12.83;;;11.83;;
14681;SDS011;7429;52.498;13.480;2022-09-09T03:57:30;14.87;;;13.43;;
14681;SDS011;7429;52.498;13.480;2022-09-09T04:00:38;11.73;;;10.63;;
14681;SDS011;7429;52.498;13.480;2022-09-09T04:03:45;14.27;;;12.77;;
14681;SDS011;7429;52.498;13.480;2022-09-09T04:06:48;12.43;;;11.33;;
14681;SDS011;7429;52.498;13.480;2022-09-09T04:09:52;11.80;;;10.60;;
14681;SDS011;7429;52.498;13.480;2022-09-09T04:12:55;11.57;;;10.57;;
14681;SDS011;7429;52.498;13.480;2022-09-09T04:15:59;12.40;;;11.40;;
14681;SDS011;7429;52.498;13.480;2022-09-09T04:19:07;11.23;;;10.30;;
14681;SDS011;7429;52.498;13.480;2022-09-09T04:22:10;15.13;;;10.90;;
14681;SDS011;7429;52.498;13.480;2022-09-09T04:25:14;11.63;;;10.47;;
14681;SDS011;7429;52.498;13.480;2022-09-09T04:28:18;12.53;;;11.43;;
14681;SDS011;7429;52.498;13.480;2022-09-09T04:31:25;13.43;;;11.17;;
14681;SDS011;7429;52.498;13.480;2022-09-09T04:34:31;12.63;;;10.17;;
14681;SDS011;7429;52.498;13.480;2022-09-09T04:37:35;11.13;;;10.03;;
14681;SDS011;7429;52.498;13.480;2022-09-09T04:40:38;11.50;;;10.40;;
14681;SDS011;7429;52.498;13.480;2022-09-09T04:43:44;12.23;;;11.23;;
14681;SDS011;7429;52.498;13.480;2022-09-09T04:46:49;11.57;;;10.67;;
14681;SDS011;7429;52.498;13.480;2022-09-09T04:49:53;12.63;;;11.40;;
14681;SDS011;7429;52.498;13.480;2022-09-09T04:52:56;12.13;;;11.00;;
14681;SDS011;7429;52.498;13.480;2022-09-09T04:56:05;15.33;;;9.87;;
14681;SDS011;7429;52.498;13.480;2022-09-09T04:59:18;12.57;;;11.23;;
14681;SDS011;7429;52.498;13.480;2022-09-09T05:02:26;10.70;;;9.60;;
14681;SDS011;7429;52.498;13.480;2022-09-09T05:05:34;10.60;;;9.57;;
14681;SDS011;7429;52.498;13.480;2022-09-09T05:08:38;12.13;;;11.13;;
14681;SDS011;7429;52.498;13.480;2022-09-09T05:11:43;13.73;;;12.57;;
14681;SDS011;7429;52.498;13.480;2022-09-09T05:14:55;13.87;;;12.47;;
14681;SDS011;7429;52.498;13.480;2022-09-09T05:17:59;13.80;;;11.03;;
14681;SDS011;7429;52.498;13.480;2022-09-09T05:21:06;11.57;;;9.27;;
14681;SDS011;7429;52.498;13.480;2022-09-09T05:24:10;11.53;;;10.43;;
14681;SDS011;7429;52.498;13.480;2022-09-09T05:27:13;11.63;;;10.47;;
14681;SDS011;7429;52.498;13.480;2022-09-09T05:30:16;12.23;;;11.00;;
14681;SDS011;7429;52.498;13.480;2022-09-09T05:33:20;14.90;;;13.70;;
14681;SDS011;7429;52.498;13.480;2022-09-09T05:36:25;17.77;;;16.47;;
14681;SDS011;7429;52.498;13.480;2022-09-09T05:39:30;11.30;;;10.40;;
14681;SDS011;7429;52.498;13.480;2022-09-09T05:42:34;14.17;;;12.93;;
14681;SDS011;7429;52.498;13.480;2022-09-09T05:45:38;12.70;;;11.50;;
14681;SDS011;7429;52.498;13.480;2022-09-09T05:48:41;18.73;;;17.37;;
14681;SDS011;7429;52.498;13.480;2022-09-09T05:51:59;15.03;;;12.67;;
14681;SDS011;7429;52.498;13.480;2022-09-09T05:55:02;12.93;;;11.80;;
14681;SDS011;7429;52.498;13.480;2022-09-09T05:58:06;12.68;;;11.75;;
14681;SDS011;7429;52.498;13.480;2022-09-09T06:01:12;12.50;;;11.55;;
14681;SDS011;7429;52.498;13.480;2022-09-09T06:04:17;11.87;;;11.00;;
14681;SDS011;7429;52.498;13.480;2022-09-09T06:07:24;12.53;;;11.30;;
14681;SDS011;7429;52.498;13.480;2022-09-09T06:10:28;10.10;;;9.17;;
14681;SDS011;7429;52.498;13.480;2022-09-09T06:13:31;8.57;;;7.77;;
14681;SDS011;7429;52.498;13.480;2022-09-09T06:16:35;7.38;;;6.63;;
14681;SDS011;7429;52.498;13.480;2022-09-09T06:19:46;12.60;;;7.33;;
14681;SDS011;7429;52.498;13.480;2022-09-09T06:22:50;7.78;;;6.78;;
14681;SDS011;7429;52.498;13.480;2022-09-09T06:26:00;10.90;;;8.40;;
14681;SDS011;7429;52.498;13.480;2022-09-09T06:29:08;10.52;;;9.52;;
14681;SDS011;7429;52.498;13.480;2022-09-09T06:32:11;10.13;;;9.23;;
14681;SDS011;7429;52.498;13.480;2022-09-09T06:35:14;9.65;;;8.55;;
14681;SDS011;7429;52.498;13.480;2022-09-09T06:38:19;7.97;;;7.13;;
14681;SDS011;7429;52.498;13.480;2022-09-09T06:41:24;8.32;;;7.60;;
14681;SDS011;7429;52.498;13.480;2022-09-09T06:44:31;8.18;;;6.80;;
14681;SDS011;7429;52.498;13.480;2022-09-09T06:47:38;8.57;;;7.78;;
14681;SDS011;7429;52.498;13.480;2022-09-09T06:50:42;6.35;;;5.85;;
14681;SDS011;7429;52.498;13.480;2022-09-09T06:53:46;6.93;;;6.40;;
14681;SDS011;7429;52.498;13.480;2022-09-09T06:56:52;8.73;;;7.82;;
14681;SDS011;7429;52.498;13.480;2022-09-09T06:59:57;9.52;;;8.50;;
14681;SDS011;7429;52.498;13.480;2022-09-09T07:03:00;8.70;;;5.57;;
14681;SDS011;7429;52.498;13.480;2022-09-09T07:06:04;5.28;;;4.68;;
14681;SDS011;7429;52.498;13.480;2022-09-09T07:09:11;13.15;;;6.40;;
14681;SDS011;7429;52.498;13.480;2022-09-09T07:12:18;8.63;;;6.25;;
14681;SDS011;7429;52.498;13.480;2022-09-09T07:15:28;11.25;;;8.20;;
14681;SDS011;7429;52.498;13.480;2022-09-09T07:18:31;5.50;;;5.00;;
14681;SDS011;7429;52.498;13.480;2022-09-09T07:21:36;11.02;;;7.57;;
14681;SDS011;7429;52.498;13.480;2022-09-09T07:24:44;8.70;;;5.68;;
14681;SDS011;7429;52.498;13.480;2022-09-09T07:27:48;7.18;;;5.50;;
14681;SDS011;7429;52.498;13.480;2022-09-09T07:30:53;8.00;;;5.28;;
14681;SDS011;7429;52.498;13.480;2022-09-09T07:33:57;9.55;;;6.32;;
14681;SDS011;7429;52.498;13.480;2022-09-09T07:37:01;7.13;;;5.78;;
14681;SDS011;7429;52.498;13.480;2022-09-09T07:40:07;8.32;;;5.20;;
14681;SDS011;7429;52.498;13.480;2022-09-09T07:43:11;6.55;;;5.78;;
14681;SDS011;7429;52.498;13.480;2022-09-09T07:46:18;6.97;;;5.15;;
14681;SDS011;7429;52.498;13.480;2022-09-09T07:49:24;9.18;;;7.05;;
14681;SDS011;7429;52.498;13.480;2022-09-09T07:52:34;6.43;;;4.55;;
14681;SDS011;7429;52.498;13.480;2022-09-09T07:55:41;7.05;;;5.68;;
14681;SDS011;7429;52.498;13.480;2022-09-09T07:58:44;9.90;;;6.45;;
14681;SDS011;7429;52.498;13.480;2022-09-09T08:01:49;8.02;;;5.90;;
14681;SDS011;7429;52.498;13.480;2022-09-09T08:04:58;5.85;;;4.68;;
14681;SDS011;7429;52.498;13.480;2022-09-09T08:08:01;5.90;;;4.40;;
14681;SDS011;7429;52.498;13.480;2022-09-09T08:11:07;6.70;;;5.55;;
14681;SDS011;7429;52.498;13.480;2022-09-09T08:14:13;10.07;;;9.07;;
14681;SDS011;7429;52.498;13.480;2022-09-09T08:17:17;9.20;;;6.32;;
14681;SDS011;7429;52.498;13.480;2022-09-09T08:20:20;8.48;;;7.78;;
14681;SDS011;7429;52.498;13.480;2022-09-09T08:23:24;6.97;;;6.38;;
14681;SDS011;7429;52.498;13.480;2022-09-09T08:26:29;8.68;;;5.40;;
14681;SDS011;7429;52.498;13.480;2022-09-09T08:29:35;7.05;;;4.80;;
14681;SDS011;7429;52.498;13.480;2022-09-09T08:32:40;7.80;;;5.45;;
14681;SDS011;7429;52.498;13.480;2022-09-09T08:35:49;6.78;;;5.75;;
14681;SDS011;7429;52.498;13.480;2022-09-09T08:38:54;6.18;;;4.13;;
14681;SDS011;7429;52.498;13.480;2022-09-09T08:42:08;7.55;;;6.45;;
14681;SDS011;7429;52.498;13.480;2022-09-09T08:45:29;6.97;;;4.38;;
14681;SDS011;7429;52.498;13.480;2022-09-09T08:48:44;9.65;;;4.95;;
14681;SDS011;7429;52.498;13.480;2022-09-09T08:51:58;8.20;;;6.75;;
14681;SDS011;7429;52.498;13.480;2022-09-09T08:55:05;8.68;;;5.35;;
14681;SDS011;7429;52.498;13.480;2022-09-09T08:58:26;7.60;;;6.90;;
14681;SDS011;7429;52.498;13.480;2022-09-09T09:01:38;5.22;;;4.82;;
14681;SDS011;7429;52.498;13.480;2022-09-09T09:04:57;6.50;;;5.88;;
14681;SDS011;7429;52.498;13.480;2022-09-09T09:08:12;8.65;;;6.18;;
14681;SDS011;7429;52.498;13.480;2022-09-09T09:11:24;5.97;;;5.22;;
14681;SDS011;7429;52.498;13.480;2022-09-09T09:14:29;8.18;;;7.53;;
14681;SDS011;7429;52.498;13.480;2022-09-09T09:17:38;7.35;;;5.00;;
14681;SDS011;7429;52.498;13.480;2022-09-09T09:20:44;5.03;;;4.35;;
14681;SDS011;7429;52.498;13.480;2022-09-09T09:24:03;6.00;;;3.88;;
14681;SDS011;7429;52.498;13.480;2022-09-09T09:27:26;4.35;;;3.95;;
14681;SDS011;7429;52.498;13.480;2022-09-09T09:30:38;3.55;;;3.15;;
14681;SDS011;7429;52.498;13.480;2022-09-09T09:33:48;5.28;;;4.43;;
14681;SDS011;7429;52.498;13.480;2022-09-09T09:36:57;6.57;;;4.10;;
14681;SDS011;7429;52.498;13.480;2022-09-09T09:40:09;8.18;;;4.22;;
14681;SDS011;7429;52.498;13.480;2022-09-09T09:43:16;6.80;;;4.07;;
14681;SDS011;7429;52.498;13.480;2022-09-09T09:46:24;7.82;;;3.72;;
14681;SDS011;7429;52.498;13.480;2022-09-09T09:49:34;7.90;;;3.20;;
14681;SDS011;7429;52.498;13.480;2022-09-09T09:52:38;5.22;;;3.13;;
14681;SDS011;7429;52.498;13.480;2022-09-09T09:55:46;6.95;;;6.22;;
14681;SDS011;7429;52.498;13.480;2022-09-09T09:58:57;4.32;;;3.80;;
14681;SDS011;7429;52.498;13.480;2022-09-09T10:02:18;4.40;;;3.75;;
14681;SDS011;7429;52.498;13.480;2022-09-09T10:05:32;5.95;;;3.30;;
14681;SDS011;7429;52.498;13.480;2022-09-09T10:08:44;5.45;;;3.63;;
14681;SDS011;7429;52.498;13.480;2022-09-09T10:11:50;5.40;;;3.03;;
14681;SDS011;7429;52.498;13.480;2022-09-09T10:15:02;4.10;;;3.70;;
14681;SDS011;7429;52.498;13.480;2022-09-09T10:18:39;4.97;;;4.40;;
14681;SDS011;7429;52.498;13.480;2022-09-09T10:22:02;4.93;;;4.20;;
14681;SDS011;7429;52.498;13.480;2022-09-09T10:25:25;4.82;;;3.90;;
14681;SDS011;7429;52.498;13.480;2022-09-09T10:28:58;8.80;;;3.35;;
14681;SDS011;7429;52.498;13.480;2022-09-09T10:32:25;7.43;;;2.97;;
14681;SDS011;7429;52.498;13.480;2022-09-09T10:35:42;4.75;;;3.10;;
14681;SDS011;7429;52.498;13.480;2022-09-09T10:38:57;5.97;;;3.30;;
14681;SDS011;7429;52.498;13.480;2022-09-09T10:42:04;6.32;;;3.00;;
14681;SDS011;7429;52.498;13.480;2022-09-09T10:45:15;3.22;;;2.58;;
14681;SDS011;7429;52.498;13.480;2022-09-09T10:48:28;4.63;;;3.63;;
14681;SDS011;7429;52.498;13.480;2022-09-09T10:51:42;3.75;;;2.65;;
14681;SDS011;7429;52.498;13.480;2022-09-09T10:54:56;3.63;;;2.80;;
14681;SDS011;7429;52.498;13.480;2022-09-09T10:58:03;9.13;;;7.57;;
14681;SDS011;7429;52.498;13.480;2022-09-09T11:01:11;5.30;;;3.30;;
14681;SDS011;7429;52.498;13.480;2022-09-09T11:04:21;5.35;;;2.65;;
14681;SDS011;7429;52.498;13.480;2022-09-09T11:07:30;4.78;;;3.10;;
14681;SDS011;7429;52.498;13.480;2022-09-09T11:10:41;6.18;;;3.60;;
14681;SDS011;7429;52.498;13.480;2022-09-09T11:13:55;6.47;;;2.75;;
14681;SDS011;7429;52.498;13.480;2022-09-09T11:17:04;4.10;;;2.90;;
14681;SDS011;7429;52.498;13.480;2022-09-09T11:20:13;4.15;;;2.75;;
14681;SDS011;7429;52.498;13.480;2022-09-09T11:23:19;6.20;;;2.63;;
14681;SDS011;7429;52.498;13.480;2022-09-09T11:26:30;3.85;;;2.10;;
14681;SDS011;7429;52.498;13.480;2022-09-09T11:29:43;3.88;;;2.38;;
14681;SDS011;7429;52.498;13.480;2022-09-09T11:33:09;3.63;;;2.13;;
14681;SDS011;7429;52.498;13.480;2022-09-09T11:40:20;3.85;;;2.20;;
14681;SDS011;7429;52.498;13.480;2022-09-09T11:43:27;5.57;;;2.95;;
14681;SDS011;7429;52.498;13.480;2022-09-09T11:46:34;5.22;;;2.42;;
14681;SDS011;7429;52.498;13.480;2022-09-09T11:49:41;3.50;;;2.38;;
14681;SDS011;7429;52.498;13.480;2022-09-09T11:52:47;3.28;;;2.03;;
14681;SDS011;7429;52.498;13.480;2022-09-09T11:56:02;3.17;;;2.10;;
14681;SDS011;7429;52.498;13.480;2022-09-09T11:59:19;4.25;;;2.25;;
14681;SDS011;7429;52.498;13.480;2022-09-09T12:02:26;4.95;;;2.30;;
14681;SDS011;7429;52.498;13.480;2022-09-09T12:05:36;5.28;;;2.63;;
14681;SDS011;7429;52.498;13.480;2022-09-09T12:08:42;2.17;;;1.92;;
14681;SDS011;7429;52.498;13.480;2022-09-09T12:11:49;2.45;;;2.17;;
14681;SDS011;7429;52.498;13.480;2022-09-09T12:18:23;6.45;;;2.13;;
14681;SDS011;7429;52.498;13.480;2022-09-09T12:21:30;3.72;;;1.90;;
14681;SDS011;7429;52.498;13.480;2022-09-09T12:24:43;4.47;;;3.53;;
14681;SDS011;7429;52.498;13.480;2022-09-09T12:27:58;2.60;;;2.28;;
14681;SDS011;7429;52.498;13.480;2022-09-09T12:31:10;2.38;;;1.85;;
14681;SDS011;7429;52.498;13.480;2022-09-09T12:34:23;2.40;;;1.58;;
14681;SDS011;7429;52.498;13.480;2022-09-09T12:37:43;2.55;;;2.00;;
14681;SDS011;7429;52.498;13.480;2022-09-09T12:40:54;2.08;;;1.83;;
14681;SDS011;7429;52.498;13.480;2022-09-09T12:44:04;3.05;;;1.75;;
14681;SDS011;7429;52.498;13.480;2022-09-09T12:47:09;3.03;;;2.22;;
14681;SDS011;7429;52.498;13.480;2022-09-09T12:50:15;3.60;;;2.33;;
14681;SDS011;7429;52.498;13.480;2022-09-09T12:53:22;3.15;;;1.90;;
14681;SDS011;7429;52.498;13.480;2022-09-09T12:56:28;4.35;;;1.90;;
14681;SDS011;7429;52.498;13.480;2022-09-09T12:59:36;3.47;;;2.53;;
14681;SDS011;7429;52.498;13.480;2022-09-09T13:02:48;2.58;;;2.20;;
14681;SDS011;7429;52.498;13.480;2022-09-09T13:05:57;3.28;;;1.63;;
14681;SDS011;7429;52.498;13.480;2022-09-09T13:09:12;3.83;;;2.10;;
14681;SDS011;7429;52.498;13.480;2022-09-09T13:12:18;3.42;;;1.90;;
14681;SDS011;7429;52.498;13.480;2022-09-09T13:15:26;3.78;;;1.80;;
14681;SDS011;7429;52.498;13.480;2022-09-09T13:18:31;16.58;;;2.40;;
14681;SDS011;7429;52.498;13.480;2022-09-09T13:21:37;1.73;;;1.63;;
14681;SDS011;7429;52.498;13.480;2022-09-09T13:24:41;3.13;;;2.70;;
14681;SDS011;7429;52.498;13.480;2022-09-09T13:27:51;2.50;;;1.65;;
14681;SDS011;7429;52.498;13.480;2022-09-09T13:31:00;4.35;;;1.73;;
14681;SDS011;7429;52.498;13.480;2022-09-09T13:34:10;4.00;;;1.63;;
14681;SDS011;7429;52.498;13.480;2022-09-09T13:37:17;3.15;;;2.00;;
14681;SDS011;7429;52.498;13.480;2022-09-09T13:40:26;3.08;;;1.95;;
14681;SDS011;7429;52.498;13.480;2022-09-09T13:43:31;2.53;;;2.00;;
14681;SDS011;7429;52.498;13.480;2022-09-09T13:46:39;4.82;;;2.10;;
14681;SDS011;7429;52.498;13.480;2022-09-09T13:49:44;5.32;;;3.22;;
14681;SDS011;7429;52.498;13.480;2022-09-09T13:52:47;2.70;;;2.60;;
14681;SDS011;7429;52.498;13.480;2022-09-09T13:55:52;2.50;;;2.03;;
14681;SDS011;7429;52.498;13.480;2022-09-09T13:58:55;2.47;;;1.90;;
14681;SDS011;7429;52.498;13.480;2022-09-09T14:02:00;5.30;;;2.90;;
14681;SDS011;7429;52.498;13.480;2022-09-09T14:05:04;6.47;;;2.70;;
14681;SDS011;7429;52.498;13.480;2022-09-09T14:08:20;2.70;;;2.35;;
14681;SDS011;7429;52.498;13.480;2022-09-09T14:11:26;3.58;;;1.85;;
14681;SDS011;7429;52.498;13.480;2022-09-09T14:14:29;3.22;;;2.00;;
14681;SDS011;7429;52.498;13.480;2022-09-09T14:17:34;5.05;;;2.30;;
14681;SDS011;7429;52.498;13.480;2022-09-09T14:20:37;4.00;;;2.00;;
14681;SDS011;7429;52.498;13.480;2022-09-09T14:23:40;4.03;;;2.63;;
14681;SDS011;7429;52.498;13.480;2022-09-09T14:26:44;2.97;;;2.33;;
14681;SDS011;7429;52.498;13.480;2022-09-09T14:29:47;3.67;;;2.20;;
14681;SDS011;7429;52.498;13.480;2022-09-09T14:32:51;5.05;;;2.58;;
14681;SDS011;7429;52.498;13.480;2022-09-09T14:35:55;7.35;;;1.90;;
14681;SDS011;7429;52.498;13.480;2022-09-09T14:38:59;4.03;;;2.47;;
14681;SDS011;7429;52.498;13.480;2022-09-09T14:42:02;3.55;;;2.25;;
14681;SDS011;7429;52.498;13.480;2022-09-09T14:45:06;5.45;;;2.97;;
14681;SDS011;7429;52.498;13.480;2022-09-09T14:48:12;4.97;;;2.33;;
14681;SDS011;7429;52.498;13.480;2022-09-09T14:51:16;4.55;;;2.00;;
14681;SDS011;7429;52.498;13.480;2022-09-09T14:54:22;2.83;;;1.67;;
14681;SDS011;7429;52.498;13.480;2022-09-09T14:57:25;3.72;;;1.58;;
14681;SDS011;7429;52.498;13.480;2022-09-09T15:00:28;3.80;;;1.90;;
14681;SDS011;7429;52.498;13.480;2022-09-09T15:03:33;2.90;;;2.50;;
14681;SDS011;7429;52.498;13.480;2022-09-09T15:06:36;2.95;;;2.20;;
14681;SDS011;7429;52.498;13.480;2022-09-09T15:09:40;4.72;;;2.42;;
14681;SDS011;7429;52.498;13.480;2022-09-09T15:12:43;4.97;;;2.75;;
14681;SDS011;7429;52.498;13.480;2022-09-09T15:15:46;3.35;;;2.22;;
14681;SDS011;7429;52.498;13.480;2022-09-09T15:18:53;4.78;;;2.20;;
14681;SDS011;7429;52.498;13.480;2022-09-09T15:21:57;4.00;;;2.05;;
14681;SDS011;7429;52.498;13.480;2022-09-09T15:25:01;3.20;;;2.08;;
14681;SDS011;7429;52.498;13.480;2022-09-09T15:28:05;3.22;;;2.50;;
14681;SDS011;7429;52.498;13.480;2022-09-09T15:31:09;6.90;;;3.10;;
14681;SDS011;7429;52.498;13.480;2022-09-09T15:34:20;4.82;;;2.15;;
14681;SDS011;7429;52.498;13.480;2022-09-09T15:37:23;4.95;;;2.60;;
14681;SDS011;7429;52.498;13.480;2022-09-09T15:40:26;5.07;;;2.60;;
14681;SDS011;7429;52.498;13.480;2022-09-09T15:43:29;3.10;;;2.10;;
14681;SDS011;7429;52.498;13.480;2022-09-09T15:46:32;3.00;;;2.42;;
14681;SDS011;7429;52.498;13.480;2022-09-09T15:49:40;5.15;;;2.60;;
14681;SDS011;7429;52.498;13.480;2022-09-09T15:52:44;2.30;;;2.08;;
14681;SDS011;7429;52.498;13.480;2022-09-09T15:55:47;4.95;;;2.22;;
14681;SDS011;7429;52.498;13.480;2022-09-09T15:58:55;4.55;;;2.00;;
14681;SDS011;7429;52.498;13.480;2022-09-09T16:02:00;4.22;;;2.28;;
14681;SDS011;7429;52.498;13.480;2022-09-09T16:05:06;6.57;;;4.15;;
14681;SDS011;7429;52.498;13.480;2022-09-09T16:08:10;3.85;;;2.78;;
14681;SDS011;7429;52.498;13.480;2022-09-09T16:11:15;7.80;;;4.07;;
14681;SDS011;7429;52.498;13.480;2022-09-09T16:14:21;8.52;;;2.83;;
14681;SDS011;7429;52.498;13.480;2022-09-09T16:17:24;2.47;;;1.83;;
14681;SDS011;7429;52.498;13.480;2022-09-09T16:20:30;3.90;;;2.47;;
14681;SDS011;7429;52.498;13.480;2022-09-09T16:23:33;2.80;;;2.63;;
14681;SDS011;7429;52.498;13.480;2022-09-09T16:26:38;2.70;;;2.33;;
14681;SDS011;7429;52.498;13.480;2022-09-09T16:29:44;8.25;;;2.20;;
14681;SDS011;7429;52.498;13.480;2022-09-09T16:32:47;5.63;;;4.22;;
14681;SDS011;7429;52.498;13.480;2022-09-09T16:35:51;7.72;;;4.95;;
14681;SDS011;7429;52.498;13.480;2022-09-09T16:38:55;5.65;;;5.30;;
14681;SDS011;7429;52.498;13.480;2022-09-09T16:42:00;6.13;;;4.07;;
14681;SDS011;7429;52.498;13.480;2022-09-09T16:45:04;7.75;;;3.15;;
14681;SDS011;7429;52.498;13.480;2022-09-09T16:48:08;5.95;;;4.22;;
14681;SDS011;7429;52.498;13.480;2022-09-09T16:51:14;6.28;;;3.30;;
14681;SDS011;7429;52.498;13.480;2022-09-09T16:54:20;4.32;;;2.75;;
14681;SDS011;7429;52.498;13.480;2022-09-09T16:57:24;9.05;;;8.45;;
14681;SDS011;7429;52.498;13.480;2022-09-09T17:00:29;4.85;;;3.78;;
14681;SDS011;7429;52.498;13.480;2022-09-09T17:03:32;5.80;;;4.05;;
14681;SDS011;7429;52.498;13.480;2022-09-09T17:06:37;8.77;;;4.43;;
14681;SDS011;7429;52.498;13.480;2022-09-09T17:09:40;6.68;;;3.40;;
14681;SDS011;7429;52.498;13.480;2022-09-09T17:12:43;5.38;;;3.63;;
14681;SDS011;7429;52.498;13.480;2022-09-09T17:15:47;4.53;;;3.65;;
14681;SDS011;7429;52.498;13.480;2022-09-09T17:18:50;3.13;;;2.58;;
14681;SDS011;7429;52.498;13.480;2022-09-09T17:21:55;4.30;;;3.10;;
14681;SDS011;7429;52.498;13.480;2022-09-09T17:25:17;5.53;;;4.07;;
14681;SDS011;7429;52.498;13.480;2022-09-09T17:28:20;2.60;;;2.40;;
14681;SDS011;7429;52.498;13.480;2022-09-09T17:31:27;5.72;;;4.30;;
14681;SDS011;7429;52.498;13.480;2022-09-09T17:34:34;3.08;;;2.88;;
14681;SDS011;7429;52.498;13.480;2022-09-09T17:37:38;3.60;;;2.33;;
14681;SDS011;7429;52.498;13.480;2022-09-09T17:40:41;3.20;;;2.92;;
14681;SDS011;7429;52.498;13.480;2022-09-09T17:43:45;4.13;;;2.70;;
14681;SDS011;7429;52.498;13.480;2022-09-09T17:46:48;3.95;;;3.15;;
14681;SDS011;7429;52.498;13.480;2022-09-09T17:49:51;3.88;;;2.80;;
14681;SDS011;7429;52.498;13.480;2022-09-09T17:52:56;5.78;;;5.28;;
14681;SDS011;7429;52.498;13.480;2022-09-09T17:56:02;4.88;;;4.43;;
14681;SDS011;7429;52.498;13.480;2022-09-09T17:59:07;3.67;;;3.38;;
14681;SDS011;7429;52.498;13.480;2022-09-09T18:02:11;3.40;;;3.10;;
14681;SDS011;7429;52.498;13.480;2022-09-09T18:05:14;4.20;;;2.88;;
14681;SDS011;7429;52.498;13.480;2022-09-09T18:08:20;6.63;;;4.25;;
14681;SDS011;7429;52.498;13.480;2022-09-09T18:11:24;4.88;;;4.22;;
14681;SDS011;7429;52.498;13.480;2022-09-09T18:14:29;3.08;;;2.95;;
14681;SDS011;7429;52.498;13.480;2022-09-09T18:17:34;3.47;;;3.13;;
14681;SDS011;7429;52.498;13.480;2022-09-09T18:20:42;5.38;;;3.20;;
14681;SDS011;7429;52.498;13.480;2022-09-09T18:23:47;6.15;;;4.78;;
14681;SDS011;7429;52.498;13.480;2022-09-09T18:26:52;4.95;;;4.53;;
14681;SDS011;7429;52.498;13.480;2022-09-09T18:29:55;4.20;;;3.72;;
14681;SDS011;7429;52.498;13.480;2022-09-09T18:32:58;3.55;;;3.25;;
14681;SDS011;7429;52.498;13.480;2022-09-09T18:36:05;4.13;;;3.67;;
14681;SDS011;7429;52.498;13.480;2022-09-09T18:39:11;4.85;;;4.45;;
14681;SDS011;7429;52.498;13.480;2022-09-09T18:42:15;5.82;;;3.92;;
14681;SDS011;7429;52.498;13.480;2022-09-09T18:45:19;5.35;;;4.50;;
14681;SDS011;7429;52.498;13.480;2022-09-09T18:48:22;6.05;;;5.57;;